Time;durP1;ratioP1;P1;durP2;ratioP2;P2;SDS_P1;SDS_P2;PMS_P1;PMS_P2;Temp;Humidity;BMP_temperature;BMP_pressure;BME280_temperature;BME280_humidity;BME280_pressure;Samples;Min_cycle;Max_cycle;Signal;HPM_P1;HPM_P2
2022/05/11 00:02:13;;;;;;;5.90;3.10;;;21.70;57.10;;;;;;4847054;29;20471;-85
2022/05/11 00:04:40;;;;;;;4.23;3.10;;;21.90;56.90;;;;;;4847791;29;20505;-85
2022/05/11 00:07:07;;;;;;;6.50;3.27;;;21.90;56.80;;;;;;4847448;29;20493;-85
2022/05/11 00:09:34;;;;;;;3.63;2.87;;;21.70;57.10;;;;;;4846556;29;20471;-87
2022/05/11 00:12:01;;;;;;;4.77;3.20;;;21.80;57.10;;;;;;4841196;29;20622;-84
2022/05/11 00:14:28;;;;;;;5.53;3.30;;;21.80;57.00;;;;;;4838838;29;21037;-85
2022/05/11 00:16:56;;;;;;;5.73;3.50;;;21.70;57.10;;;;;;4845077;29;20467;-84
2022/05/11 00:19:23;;;;;;;4.30;3.57;;;21.60;57.50;;;;;;4863432;29;20454;-84
2022/05/11 00:21:50;;;;;;;4.33;3.17;;;21.50;57.50;;;;;;4853131;29;20470;-85
2022/05/11 00:24:17;;;;;;;6.37;3.10;;;21.40;57.50;;;;;;4852180;29;20493;-84
2022/05/11 00:26:44;;;;;;;4.10;3.70;;;21.60;57.40;;;;;;4851781;29;21156;-82
2022/05/11 00:29:11;;;;;;;7.07;3.60;;;21.50;57.40;;;;;;4848152;29;20591;-85
2022/05/11 00:31:38;;;;;;;4.40;3.30;;;21.50;57.60;;;;;;4838481;29;20478;-83
2022/05/11 00:34:05;;;;;;;4.03;3.20;;;21.60;57.60;;;;;;4835396;29;20497;-84
2022/05/11 00:36:31;;;;;;;3.80;3.33;;;21.60;57.40;;;;;;4841828;29;20510;-84
2022/05/11 00:38:58;;;;;;;4.20;2.90;;;21.50;57.10;;;;;;4843095;29;20530;-85
2022/05/11 00:41:25;;;;;;;3.77;3.47;;;21.40;57.20;;;;;;4838059;29;20466;-85
2022/05/11 00:43:58;;;;;;;6.20;3.30;;;21.40;57.20;;;;;;4838705;29;20502;-83
2022/05/11 00:46:42;;;;;;;4.60;2.77;;;21.40;57.10;;;;;;4837996;29;20830;-84
2022/05/11 00:49:34;;;;;;;7.30;3.40;;;21.40;57.20;;;;;;4838749;29;20468;-84
2022/05/11 00:52:09;;;;;;;3.60;3.30;;;21.40;57.30;;;;;;4853737;29;20553;-85
2022/05/11 00:54:41;;;;;;;6.73;2.70;;;21.60;57.00;;;;;;4842586;29;20901;-83
2022/05/11 00:57:52;;;;;;;4.50;3.40;;;21.60;56.60;;;;;;4844579;29;20455;-83
2022/05/11 01:00:21;;;;;;;5.20;3.00;;;21.40;56.70;;;;;;4856449;29;20550;-85
2022/05/11 01:02:52;;;;;;;3.00;2.70;;;21.30;57.10;;;;;;4853240;29;20463;-85
2022/05/11 01:05:19;;;;;;;4.50;3.23;;;21.30;57.30;;;;;;4847804;29;20483;-86
2022/05/11 01:07:46;;;;;;;4.73;3.10;;;21.30;57.50;;;;;;4846526;29;21314;-83
2022/05/11 01:10:13;;;;;;;3.63;2.73;;;21.40;57.80;;;;;;4845176;29;20489;-85
2022/05/11 01:12:42;;;;;;;3.83;3.30;;;21.30;57.80;;;;;;4843958;29;20493;-86
2022/05/11 01:15:12;;;;;;;4.10;2.70;;;21.30;57.80;;;;;;4857546;29;20471;-84
2022/05/11 01:17:40;;;;;;;3.00;2.40;;;21.40;57.90;;;;;;4842191;29;20463;-86
2022/05/11 01:20:12;;;;;;;4.77;3.00;;;21.40;57.90;;;;;;4844124;29;20494;-86
2022/05/11 01:23:10;;;;;;;3.53;3.23;;;21.40;57.70;;;;;;4840385;29;20455;-84
2022/05/11 01:25:37;;;;;;;3.50;3.13;;;21.40;57.70;;;;;;4840702;29;20449;-82
2022/05/11 01:28:11;;;;;;;3.27;2.80;;;21.50;57.70;;;;;;4844668;29;21740;-84
2022/05/11 01:30:40;;;;;;;3.83;2.87;;;21.60;57.30;;;;;;4859402;29;20489;-86
2022/05/11 01:33:08;;;;;;;6.23;2.97;;;21.60;57.50;;;;;;4845162;29;20462;-84
2022/05/11 01:36:06;;;;;;;9.93;3.40;;;21.70;57.50;;;;;;4843294;29;20554;-84
2022/05/11 01:38:42;;;;;;;4.17;3.67;;;21.70;58.50;;;;;;4840995;29;20471;-87
2022/05/11 01:41:14;;;;;;;3.70;3.40;;;21.60;58.80;;;;;;4839712;29;20487;-83
2022/05/11 01:43:40;;;;;;;6.30;3.47;;;21.60;58.50;;;;;;4839365;29;20480;-85
2022/05/11 01:46:08;;;;;;;4.13;3.73;;;21.40;58.00;;;;;;4839374;29;20541;-85
2022/05/11 01:48:36;;;;;;;4.43;3.30;;;21.30;58.10;;;;;;4838987;29;20533;-86
2022/05/11 01:51:03;;;;;;;6.13;3.87;;;21.20;58.40;;;;;;4838749;29;20486;-85
2022/05/11 01:53:30;;;;;;;4.00;3.57;;;21.30;58.40;;;;;;4835632;29;20520;-85
2022/05/11 01:55:57;;;;;;;7.33;3.80;;;21.20;59.10;;;;;;4832653;29;20455;-85
2022/05/11 01:58:24;;;;;;;4.83;4.00;;;21.10;59.00;;;;;;4847604;29;20467;-84
2022/05/11 02:00:52;;;;;;;5.37;3.63;;;21.10;59.30;;;;;;4848115;29;20467;-83
2022/05/11 02:03:20;;;;;;;5.13;3.20;;;21.10;59.80;;;;;;4844595;29;20489;-84
2022/05/11 02:08:36;;;;;;;4.60;4.17;;;21.20;61.20;;;;;;4829760;29;20989;-83
2022/05/11 02:11:05;;;;;;;5.27;4.43;;;21.00;61.30;;;;;;4832402;29;20482;-84
2022/05/11 02:13:33;;;;;;;5.50;5.00;;;21.10;61.50;;;;;;4839987;29;20474;-83
2022/05/11 02:16:00;;;;;;;4.63;4.23;;;21.00;61.70;;;;;;4831861;29;20466;-84
2022/05/11 02:18:27;;;;;;;6.57;4.40;;;20.80;62.10;;;;;;4830123;29;20463;-86
2022/05/11 02:20:53;;;;;;;6.30;3.67;;;20.90;63.60;;;;;;4831979;29;20481;-85
2022/05/11 02:23:22;;;;;;;5.70;5.20;;;21.00;62.30;;;;;;4831725;29;20466;-82
2022/05/11 02:25:53;;;;;;;6.23;4.80;;;21.00;61.90;;;;;;4831926;29;21008;-84
2022/05/11 02:28:21;;;;;;;5.80;4.40;;;20.60;61.90;;;;;;4832257;29;21067;-85
2022/05/11 02:30:51;;;;;;;6.27;3.83;;;20.60;62.60;;;;;;4833395;29;20498;-82
2022/05/11 02:33:19;;;;;;;6.23;4.53;;;20.60;63.10;;;;;;4847399;29;21056;-83
2022/05/11 02:35:49;;;;;;;6.13;4.07;;;20.60;63.10;;;;;;4838014;29;20522;-84
2022/05/11 02:38:22;;;;;;;5.77;4.37;;;20.70;63.00;;;;;;4844365;29;20454;-83
2022/05/11 02:40:51;;;;;;;4.90;4.40;;;20.70;63.10;;;;;;4831536;29;20868;-84
2022/05/11 02:43:18;;;;;;;4.57;4.13;;;20.70;63.50;;;;;;4832970;29;20486;-84
2022/05/11 02:45:45;;;;;;;7.53;4.87;;;20.70;63.80;;;;;;4834140;29;20478;-82
2022/05/11 02:48:17;;;;;;;5.60;4.97;;;20.50;65.40;;;;;;4833137;29;20470;-84
2022/05/11 02:50:55;;;;;;;4.93;4.53;;;20.30;66.10;;;;;;4828734;29;20489;-85
2022/05/11 02:53:26;;;;;;;4.87;4.40;;;20.30;66.10;;;;;;4835341;29;20475;-84
2022/05/11 02:56:11;;;;;;;6.20;5.60;;;20.60;66.50;;;;;;4832527;29;20461;-84
2022/05/11 02:58:38;;;;;;;5.07;4.57;;;20.60;66.50;;;;;;4831602;29;20478;-83
2022/05/11 03:01:07;;;;;;;5.40;4.47;;;20.50;66.60;;;;;;4830279;29;20913;-84
2022/05/11 03:03:40;;;;;;;4.60;4.20;;;20.40;67.00;;;;;;4846514;29;20469;-83
2022/05/11 03:06:09;;;;;;;5.20;4.70;;;20.20;67.40;;;;;;4847689;29;21173;-83
2022/05/11 03:08:38;;;;;;;5.13;4.43;;;20.20;68.20;;;;;;4832722;29;20519;-84
2022/05/11 03:11:11;;;;;;;5.63;5.23;;;20.30;69.20;;;;;;4832912;29;20490;-84
2022/05/11 03:13:39;;;;;;;5.00;4.30;;;20.20;69.40;;;;;;4833372;29;21210;-84
2022/05/11 03:16:11;;;;;;;6.70;4.13;;;20.10;70.40;;;;;;4833163;29;20468;-84
2022/05/11 03:18:40;;;;;;;6.70;4.80;;;19.90;71.30;;;;;;4834429;29;20559;-85
2022/05/11 03:21:07;;;;;;;5.60;4.43;;;19.80;71.90;;;;;;4832479;29;20466;-84
2022/05/11 03:23:36;;;;;;;5.87;5.37;;;19.70;71.90;;;;;;4832763;29;20817;-83
2022/05/11 03:26:14;;;;;;;5.30;4.53;;;19.70;71.90;;;;;;4832024;29;20933;-85
2022/05/11 03:28:41;;;;;;;5.43;4.53;;;19.60;72.00;;;;;;4834905;29;20575;-84
2022/05/11 03:31:08;;;;;;;4.67;4.03;;;19.60;72.10;;;;;;4832582;29;20501;-85
2022/05/11 03:36:27;;;;;;;8.47;4.80;;;19.70;71.80;;;;;;4829875;29;20493;-82
2022/05/11 03:38:56;;;;;;;6.30;5.10;;;19.70;72.50;;;;;;4829676;29;21275;-84
2022/05/11 03:41:33;;;;;;;5.23;4.63;;;19.70;72.60;;;;;;4836343;29;20483;-85
2022/05/11 03:43:59;;;;;;;5.70;5.20;;;19.80;73.50;;;;;;4831706;29;20481;-84
2022/05/11 03:46:26;;;;;;;5.70;5.10;;;19.80;73.00;;;;;;4831142;29;20471;-85
2022/05/11 03:48:58;;;;;;;5.00;4.30;;;19.80;73.20;;;;;;4831624;29;20473;-83
2022/05/11 03:51:26;;;;;;;4.70;4.27;;;20.00;72.00;;;;;;4832569;29;20486;-87
2022/05/11 03:53:52;;;;;;;6.43;5.03;;;20.10;71.80;;;;;;4832334;29;20486;-84
2022/05/11 03:56:19;;;;;;;7.80;5.10;;;19.80;72.30;;;;;;4836134;29;20763;-83
2022/05/11 03:58:46;;;;;;;5.20;4.53;;;19.70;72.80;;;;;;4833619;29;20454;-84
2022/05/11 04:01:14;;;;;;;10.83;4.80;;;19.70;72.90;;;;;;4833836;29;20504;-86
2022/05/11 04:03:41;;;;;;;7.20;5.33;;;19.80;72.60;;;;;;4835670;29;20494;-84
2022/05/11 04:06:08;;;;;;;7.60;5.33;;;19.60;72.70;;;;;;4833094;29;20485;-85
2022/05/11 04:08:35;;;;;;;9.60;4.90;;;19.60;73.20;;;;;;4835218;29;20544;-83
2022/05/11 04:11:02;;;;;;;7.53;5.17;;;19.70;73.60;;;;;;4834136;29;20917;-85
2022/05/11 04:13:29;;;;;;;6.33;5.17;;;19.80;73.50;;;;;;4834499;29;20538;-84
2022/05/11 04:15:55;;;;;;;5.33;4.83;;;19.60;73.60;;;;;;4834018;29;20481;-85
2022/05/11 04:18:22;;;;;;;6.10;5.37;;;19.40;75.20;;;;;;4835044;29;21132;-83
2022/05/11 04:20:49;;;;;;;6.30;5.70;;;19.60;76.50;;;;;;4848016;29;20458;-85
2022/05/11 04:23:17;;;;;;;6.47;5.80;;;19.50;77.40;;;;;;4855037;29;20462;-84
2022/05/11 04:25:43;;;;;;;7.53;5.17;;;19.60;78.90;;;;;;4838219;29;20478;-83
2022/05/11 04:28:12;;;;;;;6.10;5.40;;;19.40;78.70;;;;;;4838328;29;20465;-86
2022/05/11 04:30:40;;;;;;;8.80;5.87;;;19.50;79.10;;;;;;4837445;29;20454;-84
2022/05/11 04:33:07;;;;;;;6.43;5.83;;;19.70;78.80;;;;;;4837988;29;20490;-84
2022/05/11 04:35:36;;;;;;;8.30;5.70;;;19.40;79.50;;;;;;4871010;29;20462;-87
2022/05/11 04:38:05;;;;;;;7.73;5.87;;;19.50;80.70;;;;;;4857011;29;20473;-87
2022/05/11 04:40:32;;;;;;;6.70;5.43;;;19.40;81.70;;;;;;4847180;29;20473;-84
2022/05/11 04:43:04;;;;;;;7.17;6.47;;;19.50;81.60;;;;;;4835726;29;20458;-85
2022/05/11 04:45:31;;;;;;;10.20;6.00;;;19.50;81.20;;;;;;4839527;29;20454;-84
2022/05/11 04:47:58;;;;;;;6.97;5.90;;;19.30;82.30;;;;;;4837147;29;20469;-84
2022/05/11 04:50:25;;;;;;;7.23;5.73;;;19.20;83.10;;;;;;4840263;29;20580;-82
2022/05/11 04:52:52;;;;;;;7.93;7.13;;;19.40;83.20;;;;;;4835743;29;20505;-81
2022/05/11 04:55:18;;;;;;;7.03;5.90;;;19.40;82.60;;;;;;4833561;29;20469;-84
2022/05/11 04:57:45;;;;;;;8.43;7.20;;;19.30;83.60;;;;;;4849366;29;20462;-84
2022/05/11 05:00:12;;;;;;;7.77;6.90;;;19.50;83.80;;;;;;4851305;29;20475;-84
2022/05/11 05:02:39;;;;;;;7.00;6.30;;;19.40;83.60;;;;;;4836547;29;20492;-83
2022/05/11 05:05:10;;;;;;;7.80;6.97;;;19.40;84.80;;;;;;4840609;29;20527;-82
2022/05/11 05:07:39;;;;;;;8.93;7.13;;;19.50;84.50;;;;;;4849254;29;20450;-86
2022/05/11 05:10:08;;;;;;;7.77;6.80;;;19.40;84.70;;;;;;4856113;29;20451;-88
2022/05/11 05:12:35;;;;;;;7.93;7.20;;;19.40;85.70;;;;;;4869115;29;20495;-87
2022/05/11 05:15:02;;;;;;;13.67;6.90;;;19.50;85.60;;;;;;4868949;29;20458;-86
2022/05/11 05:17:29;;;;;;;12.70;9.73;;;19.80;85.20;;;;;;4868519;29;20487;-85
2022/05/11 05:19:56;;;;;;;11.17;7.30;;;19.70;85.00;;;;;;4854756;29;20495;-87
2022/05/11 05:22:23;;;;;;;11.07;7.47;;;19.70;85.20;;;;;;4849571;29;20474;-86
2022/05/11 05:24:50;;;;;;;8.60;7.60;;;19.80;85.30;;;;;;4849283;29;20472;-83
2022/05/11 05:27:18;;;;;;;8.30;7.50;;;19.80;85.60;;;;;;4829043;29;21251;-84
2022/05/11 05:32:38;;;;;;;11.03;7.93;;;19.90;84.50;;;;;;4832045;29;20477;-85
2022/05/11 05:35:06;;;;;;;9.37;8.43;;;20.00;84.00;;;;;;4833789;29;20466;-82
2022/05/11 05:37:33;;;;;;;9.30;8.30;;;19.90;84.00;;;;;;4831091;29;20466;-85
2022/05/11 05:40:01;;;;;;;8.40;7.57;;;20.10;83.70;;;;;;4843428;29;20475;-83
2022/05/11 05:42:28;;;;;;;9.30;7.73;;;20.00;83.60;;;;;;4834025;29;20474;-82
2022/05/11 05:44:55;;;;;;;8.67;7.10;;;20.00;83.70;;;;;;4831425;29;20482;-83
2022/05/11 05:47:22;;;;;;;9.90;7.57;;;20.10;83.10;;;;;;4831818;29;20516;-82
2022/05/11 05:49:49;;;;;;;8.00;7.27;;;19.80;83.00;;;;;;4833837;29;20468;-83
2022/05/11 05:52:19;;;;;;;8.47;7.70;;;20.10;83.20;;;;;;4831571;29;20498;-84
2022/05/11 05:54:47;;;;;;;7.47;6.50;;;20.10;82.50;;;;;;4846903;29;20582;-84
2022/05/11 05:57:14;;;;;;;7.83;7.03;;;20.20;82.10;;;;;;4829924;29;20473;-83
2022/05/11 05:59:42;;;;;;;7.37;6.80;;;20.30;82.00;;;;;;4848451;29;20462;-83
2022/05/11 06:02:12;;;;;;;8.50;7.57;;;20.30;81.90;;;;;;4841932;29;20455;-87
2022/05/11 06:04:41;;;;;;;10.07;7.70;;;20.40;82.00;;;;;;4851730;29;20570;-89
2022/05/11 06:07:08;;;;;;;9.10;7.20;;;20.30;81.90;;;;;;4850314;29;20480;-85
2022/05/11 06:09:34;;;;;;;6.93;6.33;;;20.40;81.70;;;;;;4841434;29;20586;-84
2022/05/11 06:12:02;;;;;;;9.23;7.50;;;20.60;81.00;;;;;;4840996;29;20590;-84
2022/05/11 06:14:29;;;;;;;8.03;7.20;;;20.80;80.70;;;;;;4840146;29;20496;-84
2022/05/11 06:16:55;;;;;;;12.03;7.23;;;20.80;80.30;;;;;;4841046;29;20462;-84
2022/05/11 06:19:22;;;;;;;9.23;6.97;;;20.80;80.40;;;;;;4837004;29;20455;-85
2022/05/11 06:21:49;;;;;;;10.63;7.30;;;20.60;80.70;;;;;;4849437;29;20480;-82
2022/05/11 06:24:23;;;;;;;7.60;6.90;;;20.70;81.00;;;;;;4847140;29;20832;-84
2022/05/11 06:26:59;;;;;;;8.87;6.67;;;20.80;79.90;;;;;;4848739;29;20478;-83
2022/05/11 06:29:30;;;;;;;8.30;7.10;;;20.90;79.60;;;;;;4834394;29;20473;-84
2022/05/11 06:32:23;;;;;;;7.50;6.80;;;21.00;79.40;;;;;;4834854;29;21027;-85
2022/05/11 06:34:51;;;;;;;7.93;6.60;;;21.10;78.70;;;;;;4834572;29;20815;-83
2022/05/11 06:37:21;;;;;;;10.63;6.63;;;21.30;78.10;;;;;;4829368;29;20486;-83
2022/05/11 06:39:49;;;;;;;10.37;6.77;;;21.10;78.40;;;;;;4830418;29;20470;-87
2022/05/11 06:42:17;;;;;;;7.50;6.80;;;21.10;78.20;;;;;;4831724;29;20514;-83
2022/05/11 06:44:46;;;;;;;7.03;6.40;;;21.30;77.60;;;;;;4849719;29;20491;-83
2022/05/11 06:47:24;;;;;;;7.03;6.43;;;21.90;75.70;;;;;;4839327;29;20503;-83
2022/05/11 06:49:59;;;;;;;7.30;6.03;;;22.00;74.30;;;;;;4855117;29;22074;-85
2022/05/11 06:52:26;;;;;;;6.70;6.00;;;22.10;74.00;;;;;;4850739;29;20514;-84
2022/05/11 07:00:37;;;;;;;8.30;5.17;;;22.10;69.50;;;;;;4841887;29;20462;-81
2022/05/11 07:03:07;;;;;;;5.27;4.77;;;22.30;68.20;;;;;;4863087;29;20477;-85
2022/05/11 07:05:39;;;;;;;9.30;4.70;;;22.10;68.00;;;;;;4847068;29;20461;-86
2022/05/11 07:08:09;;;;;;;6.90;4.60;;;21.90;67.90;;;;;;4845743;29;20533;-86
2022/05/11 07:12:17;;;;;;;6.63;4.27;;;21.90;68.00;;;;;;4835528;29;20465;-82
2022/05/11 07:13:31;;;;;;;6.70;4.50;;;21.90;67.40;;;;;;4834034;29;20502;-83
2022/05/11 07:15:58;;;;;;;8.30;4.87;;;21.90;67.00;;;;;;4839510;29;20477;-85
2022/05/11 07:18:26;;;;;;;6.63;4.60;;;22.00;67.40;;;;;;4842401;29;20493;-84
2022/05/11 07:20:53;;;;;;;7.77;4.87;;;22.10;67.40;;;;;;4846072;29;20568;-86
2022/05/11 07:23:20;;;;;;;6.70;5.00;;;22.20;66.60;;;;;;4848539;29;20469;-84
2022/05/11 07:25:47;;;;;;;6.73;5.10;;;22.30;66.70;;;;;;4849208;29;20473;-85
2022/05/11 07:28:15;;;;;;;10.53;5.10;;;22.40;66.40;;;;;;4861210;29;20511;-85
2022/05/11 07:30:46;;;;;;;10.80;5.40;;;22.50;66.20;;;;;;4859432;29;20465;-84
2022/05/11 07:33:15;;;;;;;7.77;7.13;;;22.60;65.70;;;;;;4844550;29;20513;-84
2022/05/11 07:35:43;;;;;;;8.17;4.97;;;22.70;65.40;;;;;;4846849;29;20462;-84
2022/05/11 07:38:17;;;;;;;5.50;5.00;;;22.90;65.00;;;;;;4849238;29;20518;-85
2022/05/11 07:40:45;;;;;;;5.17;4.60;;;23.90;63.50;;;;;;4850741;29;20469;-86
2022/05/11 07:43:14;;;;;;;5.80;5.30;;;23.70;61.90;;;;;;4862351;29;20636;-86
2022/05/11 07:45:42;;;;;;;6.63;4.73;;;23.50;61.70;;;;;;4865911;29;21004;-84
2022/05/11 07:48:10;;;;;;;5.60;4.40;;;23.70;61.90;;;;;;4845778;29;20550;-84
2022/05/11 07:50:40;;;;;;;5.53;4.67;;;23.90;61.20;;;;;;4852755;29;20487;-88
2022/05/11 07:53:08;;;;;;;4.13;3.83;;;24.10;60.30;;;;;;4852138;29;20490;-83
2022/05/11 07:55:36;;;;;;;4.50;4.10;;;24.50;59.40;;;;;;4861675;29;20466;-84
2022/05/11 08:00:48;;;;;;;4.67;4.20;;;26.60;54.80;;;;;;4836747;29;20857;-84
2022/05/11 08:03:15;;;;;;;4.40;4.00;;;26.80;54.10;;;;;;4841131;29;20472;-84
2022/05/11 08:05:42;;;;;;;4.40;4.00;;;28.50;51.20;;;;;;4836617;29;21240;-84
2022/05/11 08:08:11;;;;;;;4.40;4.00;;;30.00;48.10;;;;;;4836139;29;20459;-83
2022/05/11 08:10:44;;;;;;;7.20;4.60;;;32.20;44.40;;;;;;4835058;29;20485;-83
2022/05/11 08:13:12;;;;;;;3.83;3.53;;;32.40;42.40;;;;;;4836056;29;21142;-82
2022/05/11 08:15:47;;;;;;;4.63;3.60;;;32.20;42.20;;;;;;4850118;29;20579;-84
2022/05/11 08:18:15;;;;;;;4.63;3.50;;;32.50;41.30;;;;;;4852307;29;20471;-85
2022/05/11 08:20:46;;;;;;;6.60;3.70;;;32.60;41.20;;;;;;4836720;29;20553;-83
2022/05/11 08:23:14;;;;;;;4.83;3.77;;;33.80;40.00;;;;;;4839711;29;20482;-87
2022/05/11 08:25:43;;;;;;;6.17;4.10;;;33.80;39.10;;;;;;4835265;29;20502;-81
2022/05/11 08:28:14;;;;;;;4.33;3.93;;;32.90;39.80;;;;;;4833400;29;20484;-83
2022/05/11 08:33:41;;;;;;;4.60;3.50;;;33.00;40.00;;;;;;4867821;29;20482;-84
2022/05/11 08:36:29;;;;;;;5.60;3.40;;;33.40;39.20;;;;;;4839292;29;20482;-87
2022/05/11 08:39:00;;;;;;;4.67;3.30;;;33.10;39.10;;;;;;4848488;29;20454;-84
2022/05/11 08:41:30;;;;;;;3.70;3.40;;;33.50;39.00;;;;;;4840121;29;20497;-84
2022/05/11 08:44:03;;;;;;;3.67;3.40;;;33.40;38.20;;;;;;4841022;29;21012;-84
2022/05/11 08:47:02;;;;;;;5.03;3.60;;;33.00;38.70;;;;;;4848190;29;20453;-88
2022/05/11 08:49:50;;;;;;;4.10;3.70;;;33.90;37.80;;;;;;4847132;29;20452;-86
2022/05/11 08:52:43;;;;;;;5.30;4.17;;;33.30;37.90;;;;;;4849062;29;20483;-85
2022/05/11 08:55:33;;;;;;;6.73;3.67;;;33.00;38.30;;;;;;4847851;29;20490;-83
2022/05/11 08:58:23;;;;;;;7.73;4.07;;;32.70;39.10;;;;;;4858136;29;20462;-82
2022/05/11 09:00:56;;;;;;;4.57;4.17;;;32.80;38.70;;;;;;4844844;29;20465;-84
2022/05/11 09:03:39;;;;;;;3.70;3.40;;;32.60;39.00;;;;;;4843027;29;20525;-86
2022/05/11 09:06:15;;;;;;;5.33;4.23;;;32.50;39.40;;;;;;4843184;29;20524;-86
2022/05/11 09:08:46;;;;;;;5.03;3.80;;;32.80;38.90;;;;;;4839879;29;20458;-85
2022/05/11 09:11:23;;;;;;;4.07;3.67;;;33.00;38.40;;;;;;4834685;29;20933;-86
2022/05/11 09:13:50;;;;;;;8.90;4.10;;;33.00;38.50;;;;;;4848283;29;20556;-85
2022/05/11 09:16:24;;;;;;;4.73;3.80;;;33.00;38.50;;;;;;4833475;29;20467;-86
2022/05/11 09:18:51;;;;;;;6.30;3.73;;;32.90;38.80;;;;;;4837013;29;20530;-86
2022/05/11 09:21:23;;;;;;;6.17;4.13;;;33.30;38.50;;;;;;4831616;29;20478;-84
2022/05/11 09:24:03;;;;;;;5.73;3.80;;;33.00;38.60;;;;;;4838059;29;20528;-84
2022/05/11 09:26:36;;;;;;;5.60;3.80;;;32.80;39.30;;;;;;4833482;29;20453;-87
2022/05/11 09:29:19;;;;;;;4.63;3.70;;;33.10;38.40;;;;;;4848446;29;20449;-86
2022/05/11 09:31:53;;;;;;;6.50;3.77;;;33.10;38.80;;;;;;4848964;29;20462;-84
2022/05/11 09:34:27;;;;;;;6.10;4.30;;;32.90;38.50;;;;;;4836621;29;20473;-83
2022/05/11 09:37:04;;;;;;;9.73;4.50;;;32.50;39.00;;;;;;4839578;29;20465;-85
2022/05/11 09:39:33;;;;;;;5.83;4.23;;;32.80;39.00;;;;;;4833883;29;20698;-82
2022/05/11 09:42:17;;;;;;;5.13;4.63;;;32.80;39.00;;;;;;4832164;29;20456;-86
2022/05/11 09:44:48;;;;;;;6.00;4.47;;;32.50;39.20;;;;;;4832639;29;20566;-83
2022/05/11 09:47:28;;;;;;;7.97;5.13;;;32.70;39.20;;;;;;4837125;29;20952;-81
2022/05/11 09:50:13;;;;;;;4.20;3.90;;;32.10;39.80;;;;;;4832488;29;20450;-83
2022/05/11 09:52:41;;;;;;;5.00;4.47;;;32.10;39.90;;;;;;4830825;29;20827;-85
2022/05/11 09:55:29;;;;;;;7.80;4.10;;;31.90;40.20;;;;;;4833832;29;20498;-85
2022/05/11 09:58:02;;;;;;;5.07;4.57;;;32.20;39.70;;;;;;4839550;29;20562;-84
2022/05/11 10:00:35;;;;;;;4.97;4.50;;;32.00;40.00;;;;;;4836338;29;20469;-83
2022/05/11 10:03:07;;;;;;;6.40;4.17;;;31.90;40.30;;;;;;4839425;29;20501;-84
2022/05/11 10:05:38;;;;;;;8.20;4.97;;;32.50;39.90;;;;;;4835589;29;20474;-82
2022/05/11 10:08:15;;;;;;;4.63;4.10;;;32.10;40.10;;;;;;4835117;29;20450;-85
2022/05/11 10:11:00;;;;;;;8.73;4.20;;;32.00;40.00;;;;;;4833860;29;21546;-85
2022/05/11 10:13:48;;;;;;;3.87;3.57;;;32.30;40.10;;;;;;4833439;29;20532;-86
2022/05/11 10:22:16;;;;;;;4.30;3.90;;;32.00;40.20;;;;;;4831447;29;20474;-86
2022/05/11 10:24:59;;;;;;;5.67;3.80;;;31.80;40.10;;;;;;4829694;29;20655;-83
2022/05/11 10:27:35;;;;;;;6.67;4.80;;;31.80;40.10;;;;;;4830787;29;20466;-86
2022/05/11 10:30:14;;;;;;;5.03;4.43;;;31.60;40.40;;;;;;4831067;29;20458;-85
2022/05/11 10:32:55;;;;;;;5.20;3.37;;;31.50;40.40;;;;;;4847594;29;20873;-83
2022/05/11 10:35:26;;;;;;;5.60;4.27;;;31.80;40.10;;;;;;4848561;29;20482;-86
2022/05/11 10:38:12;;;;;;;4.07;3.70;;;31.90;39.90;;;;;;4836593;29;20478;-85
2022/05/11 10:41:05;;;;;;;5.20;3.87;;;31.90;40.00;;;;;;4835981;29;20959;-87
2022/05/11 10:44:02;;;;;;;6.30;3.67;;;32.10;39.60;;;;;;4848722;29;20682;-87
2022/05/11 10:46:42;;;;;;;4.90;3.90;;;32.20;39.40;;;;;;4835439;29;20465;-85
2022/05/11 10:49:25;;;;;;;5.70;3.80;;;32.40;39.60;;;;;;4839696;29;20489;-85
2022/05/11 10:52:30;;;;;;;6.13;4.20;;;32.40;39.10;;;;;;4853237;29;20458;-85
2022/05/11 10:55:05;;;;;;;4.23;3.93;;;32.00;39.50;;;;;;4852610;29;20508;-86
2022/05/11 10:58:05;;;;;;;7.93;3.70;;;31.60;40.30;;;;;;4851762;29;21295;-84
2022/05/11 11:00:36;;;;;;;5.80;3.83;;;31.80;40.00;;;;;;4842810;29;20496;-85
2022/05/11 11:03:32;;;;;;;4.13;3.70;;;32.60;39.20;;;;;;4839651;29;20511;-86
2022/05/11 11:09:59;;;;;;;7.03;3.93;;;32.30;39.30;;;;;;4840969;29;20909;-84
2022/05/11 11:12:51;;;;;;;4.50;3.80;;;32.00;40.00;;;;;;4839446;29;20470;-85
2022/05/11 11:15:22;;;;;;;4.80;4.40;;;32.10;39.50;;;;;;4852255;29;20655;-83
2022/05/11 11:17:51;;;;;;;5.17;4.00;;;31.80;40.10;;;;;;4839656;29;20584;-84
2022/05/11 11:20:21;;;;;;;8.90;4.10;;;32.10;39.90;;;;;;4840545;29;20726;-84
2022/05/11 11:23:12;;;;;;;5.23;3.17;;;31.80;40.00;;;;;;4838887;29;20879;-85
2022/05/11 11:25:56;;;;;;;3.77;3.37;;;32.00;40.10;;;;;;4837896;29;20461;-84
2022/05/11 11:28:25;;;;;;;4.50;3.63;;;32.40;39.50;;;;;;4837889;29;21241;-85
2022/05/11 11:30:58;;;;;;;5.60;3.97;;;32.60;39.40;;;;;;4836810;29;20577;-84
2022/05/11 11:33:26;;;;;;;4.10;3.60;;;32.40;39.40;;;;;;4835928;29;20545;-84
2022/05/11 11:35:58;;;;;;;7.30;6.30;;;32.20;39.70;;;;;;4835395;29;20504;-85
2022/05/11 11:38:47;;;;;;;6.00;3.93;;;32.10;39.70;;;;;;4838275;29;20529;-85
2022/05/11 11:41:40;;;;;;;4.77;3.60;;;32.30;39.50;;;;;;4853818;29;20545;-85
2022/05/11 11:44:30;;;;;;;6.53;4.40;;;32.70;39.00;;;;;;4845190;29;21229;-82
2022/05/11 11:46:59;;;;;;;4.07;3.73;;;32.60;38.90;;;;;;4853901;29;20471;-85
2022/05/11 11:49:27;;;;;;;8.30;3.77;;;32.50;39.20;;;;;;4839300;29;20462;-84
2022/05/11 11:52:05;;;;;;;7.30;3.83;;;32.40;39.50;;;;;;4836629;29;20462;-83
2022/05/11 11:54:38;;;;;;;7.90;4.50;;;32.30;39.70;;;;;;4836414;29;20493;-83
2022/05/11 11:57:16;;;;;;;5.80;4.70;;;32.10;40.10;;;;;;4837679;29;20459;-84
2022/05/11 12:00:05;;;;;;;5.90;4.17;;;32.10;40.10;;;;;;4846845;29;20469;-87
2022/05/11 12:02:40;;;;;;;5.83;3.73;;;32.40;39.60;;;;;;4857585;29;20466;-87
2022/05/11 12:05:39;;;;;;;5.30;3.63;;;32.50;39.50;;;;;;4862482;29;20550;-85
2022/05/11 12:16:59;;;;;;;5.57;4.50;;;32.90;39.30;;;;;;4858557;29;20510;-87
2022/05/11 12:19:35;;;;;;;4.70;3.40;;;33.40;38.40;;;;;;4874407;29;20482;-86
2022/05/11 12:22:12;;;;;;;4.60;4.30;;;32.90;39.10;;;;;;4859263;29;20462;-87
2022/05/11 12:24:42;;;;;;;8.57;4.30;;;32.70;39.50;;;;;;4858372;29;20485;-86
2022/05/11 12:27:13;;;;;;;4.60;4.20;;;32.60;39.70;;;;;;4857494;29;20462;-86
2022/05/11 12:30:00;;;;;;;10.30;3.80;;;32.60;39.60;;;;;;4860835;29;20446;-87
2022/05/11 12:32:31;;;;;;;8.13;5.00;;;32.40;40.10;;;;;;4853937;29;20486;-87
2022/05/11 12:35:12;;;;;;;4.43;3.77;;;32.50;39.70;;;;;;4870476;29;20462;-88
2022/05/11 12:37:39;;;;;;;6.63;3.70;;;32.40;39.90;;;;;;4865103;29;20486;-87
2022/05/11 12:40:13;;;;;;;4.90;3.90;;;32.30;40.10;;;;;;4842842;29;20470;-85
2022/05/11 12:42:43;;;;;;;7.37;4.30;;;32.60;39.80;;;;;;4843640;29;20468;-85
2022/05/11 12:45:15;;;;;;;6.30;3.93;;;32.50;40.00;;;;;;4842833;29;20489;-87
2022/05/11 12:47:54;;;;;;;4.47;4.07;;;32.50;40.10;;;;;;4847811;29;20657;-87
2022/05/11 12:50:29;;;;;;;4.63;3.70;;;32.80;39.40;;;;;;4853538;29;20535;-88
2022/05/11 12:53:28;;;;;;;4.17;3.43;;;32.60;39.20;;;;;;4854082;29;20446;-85
2022/05/11 12:56:31;;;;;;;4.80;4.40;;;32.20;40.00;;;;;;4869352;29;20546;-86
2022/05/11 12:59:19;;;;;;;4.40;4.00;;;32.20;39.90;;;;;;4847325;29;20472;-82
2022/05/11 13:01:46;;;;;;;8.50;3.90;;;33.60;39.20;;;;;;4860442;29;20479;-81
2022/05/11 13:04:23;;;;;;;4.70;4.20;;;33.80;38.30;;;;;;4844511;29;20497;-84
2022/05/11 13:06:52;;;;;;;4.43;4.03;;;33.50;38.30;;;;;;4844352;29;20546;-80
2022/05/11 13:09:43;;;;;;;4.60;3.80;;;33.10;39.00;;;;;;4836555;29;20466;-82
2022/05/11 13:12:13;;;;;;;6.73;4.07;;;33.00;39.10;;;;;;4845534;29;20473;-81
2022/05/11 13:14:52;;;;;;;6.03;4.53;;;32.80;39.40;;;;;;4833015;29;20493;-83
2022/05/11 13:17:35;;;;;;;6.90;4.27;;;32.50;39.60;;;;;;4837028;29;20463;-80
2022/05/11 13:20:24;;;;;;;6.00;3.43;;;32.50;39.50;;;;;;4831785;29;20955;-80
2022/05/11 13:23:00;;;;;;;5.90;3.93;;;32.60;39.40;;;;;;4830896;29;20477;-81
2022/05/11 13:25:52;;;;;;;10.30;3.50;;;32.50;39.40;;;;;;4832090;29;20505;-82
2022/05/11 13:28:33;;;;;;;4.33;3.83;;;32.50;40.00;;;;;;4828828;29;20454;-82
2022/05/11 13:31:21;;;;;;;7.10;4.00;;;33.30;38.40;;;;;;4830015;29;20477;-85
2022/05/11 13:33:48;;;;;;;4.10;3.70;;;32.90;38.90;;;;;;4834541;29;20610;-85
2022/05/11 13:36:17;;;;;;;5.97;3.83;;;32.80;39.20;;;;;;4832900;29;20585;-83
2022/05/11 13:38:59;;;;;;;6.20;4.03;;;32.50;38.70;;;;;;4838075;29;20579;-84
2022/05/11 13:41:41;;;;;;;7.17;3.90;;;32.40;39.70;;;;;;4832580;29;21931;-86
2022/05/11 13:44:15;;;;;;;6.40;4.00;;;32.20;39.40;;;;;;4847886;29;20673;-84
2022/05/11 13:49:30;;;;;;;3.77;3.17;;;32.10;38.00;;;;;;4830950;29;20466;-84
2022/05/11 13:51:57;;;;;;;6.73;2.70;;;32.60;36.80;;;;;;4835911;29;20464;-82
2022/05/11 13:54:38;;;;;;;4.50;3.00;;;32.30;36.70;;;;;;4848604;29;20482;-87
2022/05/11 13:57:28;;;;;;;6.97;2.57;;;32.10;35.90;;;;;;4835279;29;20462;-86